createdAt,value
2023-01-17T00:05:07.500Z,70.21
2023-01-17T00:10:40.639Z,69.62
2023-01-17T00:16:11.618Z,69.50
2023-01-17T00:22:01.605Z,69.55
2023-01-17T00:27:32.808Z,69.67
2023-01-17T00:33:03.985Z,70.07
2023-01-17T00:38:36.603Z,69.73
2023-01-17T00:44:27.284Z,69.51
2023-01-17T00:50:16.904Z,69.83
2023-01-17T00:56:06.576Z,69.80
2023-01-17T01:01:56.724Z,69.98
2023-01-17T01:07:45.999Z,69.89
2023-01-17T01:13:35.782Z,69.47
2023-01-17T01:19:25.113Z,69.47
2023-01-17T01:25:14.471Z,69.77
2023-01-17T01:31:04.165Z,69.78
2023-01-17T01:36:35.309Z,69.75
2023-01-17T01:42:10.060Z,69.39
2023-01-17T01:47:41.613Z,69.24
2023-01-17T01:53:12.801Z,69.84
2023-01-17T01:58:44.478Z,69.76
2023-01-17T02:04:15.432Z,69.64
2023-01-17T02:09:46.481Z,69.43
2023-01-17T02:15:17.684Z,69.47
2023-01-17T02:20:58.874Z,69.16
2023-01-17T02:26:37.875Z,69.22
2023-01-17T02:32:16.897Z,69.28
2023-01-17T02:37:53.836Z,69.83
2023-01-17T02:43:24.666Z,69.98
2023-01-17T02:48:56.231Z,69.48
2023-01-17T02:54:38.149Z,69.66
2023-01-17T03:00:24.581Z,69.36
2023-01-17T03:05:57.858Z,69.38
2023-01-17T03:11:29.056Z,69.39
2023-01-17T03:17:00.299Z,69.57
2023-01-17T03:22:31.536Z,69.82
2023-01-17T03:28:02.759Z,69.36
2023-01-17T03:33:33.840Z,69.67
2023-01-17T03:39:04.955Z,69.38
2023-01-17T03:44:35.908Z,69.50
2023-01-17T03:50:07.059Z,69.54
2023-01-17T03:55:38.173Z,69.53
2023-01-17T04:01:09.410Z,69.75
2023-01-17T04:06:40.427Z,69.13
2023-01-17T04:12:11.585Z,69.46
2023-01-17T04:17:42.573Z,69.82
2023-01-17T04:23:13.843Z,69.74
2023-01-17T04:28:46.760Z,69.12
2023-01-17T04:34:17.744Z,69.33
2023-01-17T04:39:49.031Z,69.30
2023-01-17T04:45:20.215Z,69.26
2023-01-17T04:50:51.397Z,69.51
2023-01-17T04:56:22.598Z,68.95
2023-01-17T05:01:53.393Z,68.74
2023-01-17T05:07:24.525Z,68.71
2023-01-17T05:12:56.388Z,68.82
2023-01-17T05:18:27.509Z,68.58
2023-01-17T05:23:58.776Z,68.62
2023-01-17T05:29:30.651Z,68.63
2023-01-17T05:35:02.962Z,68.60
2023-01-17T05:40:34.299Z,68.56
2023-01-17T05:46:05.325Z,69.16
2023-01-17T05:51:38.159Z,69.09
2023-01-17T05:57:09.508Z,69.08
2023-01-17T06:02:40.732Z,69.17
2023-01-17T06:08:11.809Z,68.51
2023-01-17T06:13:42.848Z,68.93
2023-01-17T06:19:13.807Z,68.73
2023-01-17T06:24:45.049Z,68.72
2023-01-17T06:30:16.435Z,68.91
2023-01-17T06:35:50.768Z,68.70
2023-01-17T06:41:23.419Z,68.66
2023-01-17T06:46:54.647Z,68.37
2023-01-17T06:52:25.760Z,68.88
2023-01-17T06:57:57.237Z,68.49
2023-01-17T07:03:28.228Z,69.05
2023-01-17T07:08:59.419Z,68.62
2023-01-17T07:14:30.843Z,68.28
2023-01-17T07:20:01.961Z,68.69
2023-01-17T07:25:33.241Z,68.70
2023-01-17T07:31:05.044Z,68.63
2023-01-17T07:36:35.757Z,68.83
2023-01-17T07:42:06.889Z,68.81
2023-01-17T07:47:38.920Z,68.59
2023-01-17T07:53:10.142Z,68.79
2023-01-17T07:58:41.115Z,68.74
2023-01-17T08:04:12.270Z,68.40
2023-01-17T08:09:43.800Z,68.44
2023-01-17T08:15:15.361Z,68.76
2023-01-17T08:20:46.507Z,68.84
2023-01-17T08:26:24.301Z,68.46
2023-01-17T08:31:55.581Z,68.59
2023-01-17T08:37:26.674Z,68.62
2023-01-17T08:42:59.010Z,68.73
2023-01-17T08:48:29.867Z,68.64
2023-01-17T08:54:01.549Z,68.65
2023-01-17T08:59:32.399Z,68.70
2023-01-17T09:05:03.614Z,68.69
2023-01-17T09:10:34.642Z,68.46
2023-01-17T09:16:06.234Z,68.45
2023-01-17T09:21:37.231Z,68.05
2023-01-17T09:27:08.419Z,68.25
2023-01-17T09:32:39.377Z,68.45
2023-01-17T09:38:10.662Z,67.88
2023-01-17T09:43:44.211Z,68.11
2023-01-17T09:49:15.116Z,67.94
2023-01-17T09:54:46.779Z,67.71
2023-01-17T10:00:32.394Z,67.52
2023-01-17T10:06:12.469Z,67.87
2023-01-17T10:11:47.418Z,67.85
2023-01-17T10:17:32.016Z,67.16
2023-01-17T10:23:15.660Z,67.64
2023-01-17T10:28:47.740Z,67.40
2023-01-17T10:34:19.578Z,67.63
2023-01-17T10:39:51.304Z,67.71
2023-01-17T10:45:26.980Z,67.42
2023-01-17T10:51:10.941Z,67.22
2023-01-17T10:56:42.180Z,67.45
2023-01-17T11:02:16.668Z,66.88
2023-01-17T11:07:58.315Z,66.87
2023-01-17T11:13:32.932Z,66.84
2023-01-17T11:19:08.835Z,67.04
2023-01-17T11:24:48.465Z,66.62
2023-01-17T11:30:20.765Z,66.80
2023-01-17T11:35:51.399Z,66.46
2023-01-17T11:41:22.669Z,66.85
2023-01-17T11:47:10.031Z,66.84
2023-01-17T11:52:41.850Z,66.96
2023-01-17T11:58:15.528Z,66.86
2023-01-17T12:03:52.797Z,67.01
2023-01-17T12:09:27.182Z,67.08
2023-01-17T12:15:03.541Z,67.02
2023-01-17T12:21:01.135Z,66.76
2023-01-17T12:26:32.347Z,66.80
2023-01-17T12:32:06.962Z,66.89
2023-01-17T12:37:38.615Z,66.93
2023-01-17T12:43:23.536Z,66.83
2023-01-17T12:48:56.482Z,66.63
2023-01-17T12:54:38.467Z,67.02
2023-01-17T13:00:23.486Z,66.82
2023-01-17T13:05:54.541Z,67.07
2023-01-17T13:11:28.937Z,67.04
2023-01-17T13:17:03.942Z,66.81
2023-01-17T13:22:35.568Z,66.82
2023-01-17T13:28:06.608Z,67.12
2023-01-17T13:33:47.521Z,66.76
2023-01-17T13:39:24.286Z,67.21
2023-01-17T13:44:55.791Z,66.92
2023-01-17T13:50:38.843Z,67.16
2023-01-17T13:56:11.983Z,66.88
2023-01-17T14:01:45.594Z,67.09
2023-01-17T14:07:19.095Z,67.29
2023-01-17T14:12:51.526Z,67.30
2023-01-17T14:18:41.154Z,67.05
2023-01-17T14:24:18.262Z,67.18
2023-01-17T14:29:51.062Z,67.60
2023-01-17T14:35:22.884Z,67.48
2023-01-17T14:40:55.088Z,67.22
2023-01-17T14:46:34.595Z,67.70
2023-01-17T14:52:06.678Z,67.37
2023-01-17T14:57:37.486Z,67.47
2023-01-17T15:03:10.861Z,67.70
2023-01-17T15:08:42.161Z,67.12
2023-01-17T15:14:15.727Z,67.18
2023-01-17T15:19:48.584Z,67.20
2023-01-17T15:25:19.401Z,67.34
2023-01-17T15:31:20.145Z,67.30
2023-01-17T15:36:51.036Z,67.45
2023-01-17T15:42:25.971Z,67.63
2023-01-17T15:47:57.777Z,67.27
2023-01-17T15:53:30.137Z,67.25
2023-01-17T15:59:39.583Z,67.15
2023-01-17T16:05:31.158Z,67.34
2023-01-17T16:11:03.464Z,67.47
2023-01-17T16:16:34.553Z,67.31
2023-01-17T16:22:05.631Z,67.09
2023-01-17T16:27:36.572Z,67.16
2023-01-17T16:33:09.260Z,67.12
2023-01-17T16:38:40.497Z,67.10
2023-01-17T16:44:11.520Z,67.49
2023-01-17T16:49:42.405Z,67.02
2023-01-17T16:55:14.317Z,67.09
2023-01-17T17:00:45.585Z,67.57
2023-01-17T17:06:17.319Z,67.18
2023-01-17T17:11:48.290Z,67.66
2023-01-17T17:17:19.443Z,67.16
2023-01-17T17:22:50.720Z,67.32
2023-01-17T17:28:21.651Z,66.80
2023-01-17T17:33:52.791Z,67.37
2023-01-17T17:39:23.799Z,66.92
2023-01-17T17:44:54.733Z,66.94
2023-01-17T17:50:25.919Z,67.19
2023-01-17T17:56:02.068Z,67.06
2023-01-17T18:01:32.989Z,66.96
2023-01-17T18:07:04.549Z,67.01
2023-01-17T18:12:35.912Z,66.65
2023-01-17T18:18:07.118Z,66.91
2023-01-17T18:23:39.155Z,67.23
2023-01-17T18:29:11.313Z,66.81
2023-01-17T18:34:42.514Z,66.92
2023-01-17T18:40:13.579Z,66.76
2023-01-17T18:45:44.985Z,66.65
2023-01-17T18:51:16.549Z,67.30
2023-01-17T18:56:48.384Z,67.05
2023-01-17T19:02:20.148Z,66.99
2023-01-17T19:07:51.067Z,66.99
2023-01-17T19:13:22.234Z,67.29
2023-01-17T19:18:53.516Z,66.91
2023-01-17T19:24:24.765Z,67.61
2023-01-17T19:29:55.798Z,67.31
2023-01-17T19:35:27.029Z,67.38
2023-01-17T19:40:58.144Z,67.28
2023-01-17T19:46:29.401Z,67.53
2023-01-17T19:52:00.625Z,67.43
2023-01-17T19:57:34.995Z,67.34
2023-01-17T20:03:05.898Z,67.36
2023-01-17T20:08:37.362Z,67.87
2023-01-17T20:14:09.470Z,67.29
2023-01-17T20:19:40.723Z,67.40
2023-01-17T20:25:12.422Z,66.74
2023-01-17T20:30:43.353Z,66.65
2023-01-17T20:36:15.205Z,66.61
2023-01-17T20:41:51.589Z,67.15
2023-01-17T20:47:22.429Z,66.83
2023-01-17T20:52:53.539Z,66.45
2023-01-17T20:58:24.918Z,67.05
2023-01-17T21:03:56.153Z,66.52
2023-01-17T21:09:27.260Z,66.47
2023-01-17T21:14:58.504Z,66.50
2023-01-17T21:20:29.521Z,66.50
2023-01-17T21:26:00.632Z,67.04
2023-01-17T21:31:34.981Z,66.61
2023-01-17T21:37:05.997Z,66.54
2023-01-17T21:42:37.083Z,67.11
2023-01-17T21:48:12.301Z,66.56
2023-01-17T21:53:43.428Z,67.14
2023-01-17T21:59:14.286Z,66.89
2023-01-17T22:04:45.475Z,66.89
2023-01-17T22:10:16.907Z,66.71
2023-01-17T22:15:57.108Z,66.93
2023-01-17T22:21:31.029Z,67.09
2023-01-17T22:27:02.134Z,66.92
2023-01-17T22:32:33.177Z,66.69
2023-01-17T22:38:03.917Z,66.63
2023-01-17T22:43:39.049Z,67.10
2023-01-17T22:49:13.469Z,66.88
2023-01-17T22:54:44.216Z,66.94
2023-01-17T23:00:15.507Z,66.62
2023-01-17T23:05:46.893Z,66.86
2023-01-17T23:11:36.902Z,66.86
2023-01-17T23:17:26.847Z,67.23
2023-01-17T23:22:58.193Z,67.20
2023-01-17T23:28:29.360Z,67.14
2023-01-17T23:34:00.544Z,67.13
2023-01-17T23:39:31.559Z,67.30
2023-01-17T23:45:02.784Z,66.93
2023-01-17T23:50:33.971Z,66.76
2023-01-17T23:56:15.179Z,67.43
